createdAt,value
2018-08-20T00:01:31.053Z,21.07
2018-08-20T00:04:03.174Z,21.05
2018-08-20T00:07:04.690Z,21.02
2018-08-20T00:09:38.568Z,20.99
2018-08-20T00:12:08.159Z,20.98
2018-08-20T00:14:36.695Z,20.94
2018-08-20T00:17:05.245Z,20.88
2018-08-20T00:19:33.574Z,20.86
2018-08-20T00:22:02.693Z,20.89
2018-08-20T00:24:31.035Z,20.88
2018-08-20T00:27:00.839Z,20.82
2018-08-20T00:29:29.325Z,20.75
2018-08-20T00:31:57.651Z,20.68
2018-08-20T00:34:25.994Z,20.67
2018-08-20T00:36:54.740Z,20.65
2018-08-20T00:39:23.072Z,20.64
2018-08-20T00:41:51.559Z,20.62
2018-08-20T00:44:19.897Z,20.61
2018-08-20T00:46:48.215Z,20.55
2018-08-20T00:49:17.213Z,20.55
2018-08-20T00:51:45.963Z,20.55
2018-08-20T00:54:14.495Z,20.55
2018-08-20T00:56:42.906Z,20.49
2018-08-20T00:59:11.281Z,20.50
2018-08-20T01:01:39.615Z,20.49
2018-08-20T01:04:07.940Z,20.50
2018-08-20T01:06:36.371Z,20.49
2018-08-20T01:09:06.435Z,20.49
2018-08-20T01:11:34.794Z,20.48
2018-08-20T01:14:03.180Z,20.47
2018-08-20T01:16:32.451Z,20.46
2018-08-20T01:19:00.776Z,20.47
2018-08-20T01:21:29.104Z,20.48
2018-08-20T01:23:57.437Z,20.48
2018-08-20T01:26:25.788Z,20.46
2018-08-20T01:28:54.120Z,20.45
2018-08-20T01:31:22.430Z,20.46
2018-08-20T01:33:50.756Z,20.43
2018-08-20T01:36:19.066Z,20.43
2018-08-20T01:38:47.397Z,20.44
2018-08-20T01:41:15.712Z,20.46
2018-08-20T01:43:44.048Z,20.46
2018-08-20T01:46:12.372Z,20.44
2018-08-20T01:48:40.693Z,20.43
2018-08-20T01:51:09.037Z,20.42
2018-08-20T01:53:37.371Z,20.42
2018-08-20T01:56:05.697Z,20.43
2018-08-20T01:58:34.024Z,20.40
2018-08-20T02:01:02.328Z,20.41
2018-08-20T02:03:30.986Z,20.38
2018-08-20T02:05:59.342Z,20.39
2018-08-20T02:08:27.764Z,20.39
2018-08-20T02:10:56.107Z,20.37
2018-08-20T02:13:24.833Z,20.37
2018-08-20T02:15:53.207Z,20.33
2018-08-20T02:18:21.561Z,20.32
2018-08-20T02:20:49.869Z,20.33
2018-08-20T02:23:18.196Z,20.33
2018-08-20T02:25:46.531Z,20.27
2018-08-20T02:28:14.877Z,20.30
2018-08-20T02:30:43.196Z,20.24
2018-08-20T02:33:11.508Z,20.30
2018-08-20T02:35:39.862Z,20.28
2018-08-20T02:38:08.214Z,20.27
2018-08-20T02:40:36.568Z,20.28
2018-08-20T02:43:04.875Z,20.30
2018-08-20T02:45:33.260Z,20.25
2018-08-20T02:48:01.578Z,20.23
2018-08-20T02:50:29.902Z,20.23
2018-08-20T02:52:58.241Z,20.22
2018-08-20T02:55:26.574Z,20.21
2018-08-20T02:57:55.476Z,20.15
2018-08-20T03:00:23.836Z,20.13
2018-08-20T03:02:52.170Z,20.13
2018-08-20T03:05:20.501Z,20.12
2018-08-20T03:07:48.840Z,20.03
2018-08-20T03:10:17.178Z,20.01
2018-08-20T03:12:45.509Z,20.02
2018-08-20T03:15:14.295Z,20.02
2018-08-20T03:17:42.649Z,20.03
2018-08-20T03:20:11.871Z,19.94
2018-08-20T03:22:40.181Z,19.93
2018-08-20T03:25:08.746Z,19.93
2018-08-20T03:27:37.311Z,19.89
2018-08-20T03:30:06.828Z,19.86
2018-08-20T03:32:35.198Z,19.83
2018-08-20T03:35:03.547Z,19.78
2018-08-20T03:37:31.892Z,19.80
2018-08-20T03:40:00.242Z,19.79
2018-08-20T03:42:28.602Z,19.73
2018-08-20T03:44:56.957Z,19.72
2018-08-20T03:47:25.307Z,19.68
2018-08-20T03:49:53.680Z,19.72
2018-08-20T03:52:22.065Z,19.67
2018-08-20T03:54:50.472Z,19.62
2018-08-20T03:57:18.844Z,19.59
2018-08-20T03:59:47.255Z,19.56
2018-08-20T04:02:15.588Z,19.56
2018-08-20T04:04:43.917Z,19.55
2018-08-20T04:07:12.263Z,19.51
2018-08-20T04:09:40.602Z,19.46
2018-08-20T04:12:08.950Z,19.47
2018-08-20T04:14:37.310Z,19.51
2018-08-20T04:17:05.637Z,19.52
2018-08-20T04:19:33.989Z,19.46
2018-08-20T04:22:02.464Z,19.49
2018-08-20T04:24:30.822Z,19.43
2018-08-20T04:26:59.168Z,19.45
2018-08-20T04:29:27.531Z,19.44
2018-08-20T04:31:55.878Z,19.44
2018-08-20T04:34:24.232Z,19.43
2018-08-20T04:36:52.580Z,19.44
2018-08-20T04:39:20.959Z,19.48
2018-08-20T04:41:49.304Z,19.51
2018-08-20T04:44:17.684Z,19.46
2018-08-20T04:46:46.046Z,19.48
2018-08-20T04:49:14.432Z,19.48
2018-08-20T04:51:42.780Z,19.55
2018-08-20T04:54:11.149Z,19.58
2018-08-20T04:56:39.497Z,19.60
2018-08-20T04:59:07.856Z,19.62
2018-08-20T05:01:36.199Z,19.64
2018-08-20T05:04:04.605Z,19.68
2018-08-20T05:06:33.464Z,19.74
2018-08-20T05:09:01.845Z,19.79
2018-08-20T05:11:30.193Z,19.79
2018-08-20T05:13:59.564Z,19.82
2018-08-20T05:16:27.934Z,19.88
2018-08-20T05:18:56.345Z,19.94
2018-08-20T05:21:24.663Z,20.01
2018-08-20T05:23:53.010Z,20.06
2018-08-20T05:26:21.590Z,20.13
2018-08-20T05:28:49.949Z,20.17
2018-08-20T05:31:18.320Z,20.21
2018-08-20T05:33:46.627Z,20.26
2018-08-20T05:36:14.981Z,20.39
2018-08-20T05:38:43.368Z,20.49
2018-08-20T05:41:11.738Z,20.50
2018-08-20T05:43:40.044Z,20.60
2018-08-20T05:46:08.421Z,20.72
2018-08-20T05:48:36.802Z,20.83
2018-08-20T05:51:05.358Z,20.94
2018-08-20T05:53:33.719Z,21.01
2018-08-20T05:56:02.070Z,21.09
2018-08-20T05:58:30.419Z,21.18
2018-08-20T06:00:58.799Z,21.29
2018-08-20T06:03:27.138Z,21.38
2018-08-20T06:05:55.488Z,21.45
2018-08-20T06:08:23.913Z,21.53
2018-08-20T06:10:52.349Z,21.61
2018-08-20T06:13:20.694Z,21.76
2018-08-20T06:15:49.063Z,21.83
2018-08-20T06:18:17.423Z,21.93
2018-08-20T06:20:45.754Z,22.00
2018-08-20T06:23:14.068Z,22.15
2018-08-20T06:25:42.412Z,22.30
2018-08-20T06:28:10.794Z,22.39
2018-08-20T06:30:39.178Z,22.51
2018-08-20T06:33:07.508Z,22.66
2018-08-20T06:35:35.885Z,22.78
2018-08-20T06:38:04.285Z,22.89
2018-08-20T06:40:32.629Z,22.88
2018-08-20T06:43:01.070Z,23.02
2018-08-20T06:45:29.448Z,23.09
2018-08-20T06:47:57.862Z,23.08
2018-08-20T06:50:26.201Z,23.07
2018-08-20T06:52:54.529Z,23.31
2018-08-20T06:55:22.897Z,23.45
2018-08-20T06:57:51.238Z,23.64
2018-08-20T07:01:44.018Z,23.74
2018-08-20T07:04:12.383Z,24.07
2018-08-20T07:06:40.749Z,24.27
2018-08-20T07:09:09.308Z,24.35
2018-08-20T07:11:38.274Z,24.32
2018-08-20T07:14:06.615Z,24.28
2018-08-20T07:16:34.993Z,24.24
2018-08-20T07:19:04.017Z,23.96
2018-08-20T07:21:32.334Z,23.92
2018-08-20T07:24:00.712Z,23.81
2018-08-20T07:26:29.705Z,23.76
2018-08-20T07:28:58.053Z,23.82
2018-08-20T07:31:26.432Z,23.87
2018-08-20T07:33:54.784Z,24.07
2018-08-20T07:36:23.153Z,24.11
2018-08-20T07:38:51.536Z,24.25
2018-08-20T07:41:19.910Z,24.31
2018-08-20T07:43:48.251Z,24.35
2018-08-20T07:46:16.663Z,24.27
2018-08-20T07:48:45.010Z,24.42
2018-08-20T07:51:13.363Z,24.58
2018-08-20T07:53:41.700Z,24.54
2018-08-20T07:56:10.353Z,24.43
2018-08-20T07:58:38.693Z,24.58
2018-08-20T08:01:07.031Z,24.52
2018-08-20T08:03:35.439Z,24.36
2018-08-20T08:06:04.994Z,24.34
2018-08-20T08:08:33.697Z,24.16
2018-08-20T08:11:02.095Z,24.32
2018-08-20T08:13:30.446Z,24.27
2018-08-20T08:15:58.857Z,24.11
2018-08-20T08:18:27.242Z,24.10
2018-08-20T08:20:55.602Z,24.03
2018-08-20T08:23:23.947Z,24.08
2018-08-20T08:25:52.309Z,24.10
2018-08-20T08:28:20.653Z,24.11
2018-08-20T08:30:48.982Z,24.09
2018-08-20T08:33:17.352Z,24.00
2018-08-20T08:35:45.700Z,24.03
2018-08-20T08:38:14.075Z,23.93
2018-08-20T08:40:42.443Z,23.95
2018-08-20T08:43:10.820Z,23.91
2018-08-20T08:45:39.187Z,23.86
2018-08-20T08:48:07.580Z,23.69
2018-08-20T08:50:35.922Z,23.78
2018-08-20T08:53:04.373Z,23.80
2018-08-20T08:55:32.744Z,23.88
2018-08-20T08:58:01.125Z,23.85
2018-08-20T09:00:29.498Z,23.95
2018-08-20T09:02:57.823Z,23.95
2018-08-20T09:05:26.233Z,23.98
2018-08-20T09:07:54.601Z,23.84
2018-08-20T09:10:22.981Z,24.04
2018-08-20T09:12:51.301Z,24.22
2018-08-20T09:15:19.640Z,24.17
2018-08-20T09:17:48.046Z,24.30
2018-08-20T09:20:17.577Z,24.35
2018-08-20T09:22:45.946Z,24.33
2018-08-20T09:25:14.966Z,24.50
2018-08-20T09:27:44.358Z,24.49
2018-08-20T09:30:18.492Z,24.66
2018-08-20T09:32:47.482Z,24.72
2018-08-20T09:35:15.921Z,24.89
2018-08-20T09:37:44.310Z,24.92
2018-08-20T09:40:13.099Z,24.85
2018-08-20T09:42:42.009Z,24.77
2018-08-20T09:45:10.798Z,24.80
2018-08-20T09:47:40.000Z,24.82
2018-08-20T09:50:11.349Z,24.64
2018-08-20T09:52:39.707Z,24.51
2018-08-20T09:55:08.812Z,24.60
2018-08-20T09:57:37.181Z,24.67
2018-08-20T10:00:09.537Z,24.49
2018-08-20T10:02:37.861Z,24.41
2018-08-20T10:05:06.231Z,24.26
2018-08-20T10:07:34.650Z,24.35
2018-08-20T10:10:02.970Z,24.35
2018-08-20T10:12:31.328Z,24.24
2018-08-20T10:14:59.649Z,24.21
2018-08-20T10:17:28.007Z,24.26
2018-08-20T10:19:56.349Z,24.14
2018-08-20T10:22:24.680Z,24.08
2018-08-20T10:24:53.020Z,24.17
2018-08-20T10:27:21.335Z,24.12
2018-08-20T10:29:49.677Z,24.19
2018-08-20T10:32:18.075Z,24.16
2018-08-20T10:34:46.415Z,24.20
2018-08-20T10:37:14.749Z,24.20
2018-08-20T10:39:43.085Z,24.20
2018-08-20T10:42:11.555Z,24.23
2018-08-20T10:44:45.317Z,24.35
2018-08-20T10:47:13.640Z,24.98
2018-08-20T10:49:41.993Z,25.72
2018-08-20T10:52:10.666Z,26.08
2018-08-20T10:54:39.027Z,26.05
2018-08-20T10:57:07.737Z,26.02
2018-08-20T10:59:36.532Z,25.98
2018-08-20T11:02:04.964Z,26.17
2018-08-20T11:04:33.276Z,25.90
2018-08-20T11:07:01.736Z,26.05
2018-08-20T11:09:30.072Z,26.00
2018-08-20T11:11:58.417Z,25.83
2018-08-20T11:14:26.789Z,25.43
2018-08-20T11:16:55.124Z,25.30
2018-08-20T11:19:23.489Z,25.23
2018-08-20T11:21:51.870Z,25.06
2018-08-20T11:24:20.205Z,25.18
2018-08-20T11:26:49.316Z,25.25
2018-08-20T11:29:18.285Z,25.17
2018-08-20T11:31:46.616Z,25.17
2018-08-20T11:34:14.994Z,25.04
2018-08-20T11:36:43.418Z,25.01
2018-08-20T11:39:11.683Z,25.01
2018-08-20T11:41:40.027Z,24.95
2018-08-20T11:44:08.381Z,24.99
2018-08-20T11:46:36.721Z,25.04
2018-08-20T11:49:05.101Z,25.00
2018-08-20T11:51:33.437Z,24.92
2018-08-20T11:54:01.791Z,24.91
2018-08-20T11:56:30.127Z,24.90
2018-08-20T11:58:58.457Z,24.84
2018-08-20T12:01:26.790Z,24.69
2018-08-20T12:03:56.001Z,24.76
2018-08-20T12:06:25.519Z,24.64
2018-08-20T12:08:54.016Z,24.46
2018-08-20T12:11:22.351Z,24.59
2018-08-20T12:13:51.076Z,24.61
2018-08-20T12:16:19.479Z,24.51
2018-08-20T12:18:47.876Z,24.48
2018-08-20T12:21:16.353Z,24.51
2018-08-20T12:23:44.695Z,24.59
2018-08-20T12:26:13.127Z,24.53
2018-08-20T12:28:41.481Z,24.54
2018-08-20T12:31:09.809Z,24.45
2018-08-20T12:33:38.132Z,24.39
2018-08-20T12:36:06.457Z,24.37
2018-08-20T12:38:35.051Z,24.35
2018-08-20T12:41:03.382Z,24.43
2018-08-20T12:43:31.715Z,24.38
2018-08-20T12:46:00.504Z,24.41
2018-08-20T12:48:28.969Z,24.42
2018-08-20T12:50:57.297Z,24.36
2018-08-20T12:53:25.617Z,24.38
2018-08-20T12:55:53.961Z,24.34
2018-08-20T12:58:22.602Z,24.19
2018-08-20T13:00:50.989Z,24.11
2018-08-20T13:03:19.340Z,24.00
2018-08-20T13:05:47.653Z,24.00
2018-08-20T13:08:16.000Z,23.95
2018-08-20T13:10:44.341Z,23.98
2018-08-20T13:13:12.692Z,24.06
2018-08-20T13:15:41.088Z,24.15
2018-08-20T13:18:09.476Z,24.23
2018-08-20T13:20:37.823Z,24.33
2018-08-20T13:23:06.787Z,24.40
2018-08-20T13:25:35.115Z,24.48
2018-08-20T13:28:03.540Z,24.42
2018-08-20T13:30:31.890Z,24.34
2018-08-20T13:33:00.264Z,24.34
2018-08-20T13:35:28.660Z,24.30
2018-08-20T13:37:57.019Z,24.24
2018-08-20T13:40:25.716Z,24.17
2018-08-20T13:42:54.192Z,24.05
2018-08-20T13:45:22.634Z,24.15
2018-08-20T13:47:51.064Z,24.27
2018-08-20T13:50:19.590Z,24.36
2018-08-20T13:52:48.275Z,24.42
2018-08-20T13:55:16.734Z,24.50
2018-08-20T13:57:45.954Z,24.62
2018-08-20T14:00:15.777Z,24.58
2018-08-20T14:02:44.119Z,24.57
2018-08-20T14:05:12.832Z,24.60
2018-08-20T14:07:41.193Z,24.64
2018-08-20T14:10:10.725Z,24.66
2018-08-20T14:12:40.127Z,24.49
2018-08-20T14:15:09.735Z,24.56
2018-08-20T14:17:38.832Z,24.51
2018-08-20T14:20:09.053Z,24.65
2018-08-20T14:22:37.403Z,24.68
2018-08-20T14:25:05.847Z,24.78
2018-08-20T14:27:34.160Z,24.72
2018-08-20T14:30:02.541Z,24.66
2018-08-20T14:32:31.256Z,24.64
2018-08-20T14:35:00.135Z,24.66
2018-08-20T14:37:28.503Z,24.62
2018-08-20T14:39:56.847Z,24.58
2018-08-20T14:42:25.425Z,24.56
2018-08-20T14:44:53.839Z,24.57
2018-08-20T14:47:22.188Z,24.56
2018-08-20T14:49:50.534Z,24.68
2018-08-20T14:52:18.904Z,24.63
2018-08-20T15:01:47.410Z,24.36
2018-08-20T15:04:15.743Z,24.34
2018-08-20T15:06:57.812Z,24.14
2018-08-20T15:09:27.644Z,24.09
2018-08-20T15:11:56.500Z,24.14
2018-08-20T15:14:24.884Z,24.13
2018-08-20T15:16:53.584Z,24.16
2018-08-20T15:19:21.917Z,24.14
2018-08-20T15:21:50.241Z,24.17
2018-08-20T15:24:19.269Z,24.14
2018-08-20T15:26:48.460Z,24.16
2018-08-20T15:29:17.515Z,24.17
2018-08-20T15:31:46.008Z,24.12
2018-08-20T15:34:14.384Z,24.08
2018-08-20T15:36:42.909Z,24.18
2018-08-20T15:39:11.658Z,24.22
2018-08-20T15:41:40.054Z,24.20
2018-08-20T15:44:09.649Z,24.17
2018-08-20T15:46:38.044Z,24.17
2018-08-20T15:49:06.934Z,24.24
2018-08-20T15:51:35.603Z,24.25
2018-08-20T15:54:04.002Z,24.27
2018-08-20T15:56:32.358Z,24.25
2018-08-20T15:59:00.712Z,24.29
2018-08-20T16:01:29.053Z,24.23
2018-08-20T16:03:57.415Z,24.19
2018-08-20T16:06:25.796Z,24.18
2018-08-20T16:08:54.636Z,24.16
2018-08-20T16:11:22.996Z,24.13
2018-08-20T16:13:51.359Z,24.13
2018-08-20T16:16:19.728Z,24.16
2018-08-20T16:18:48.116Z,24.07
2018-08-20T16:21:16.500Z,23.97
2018-08-20T16:23:44.876Z,23.97
2018-08-20T16:26:13.241Z,23.99
2018-08-20T16:28:41.620Z,23.98
2018-08-20T16:31:09.999Z,23.95
2018-08-20T16:33:38.359Z,23.91
2018-08-20T16:36:06.757Z,23.81
2018-08-20T16:38:35.154Z,23.76
2018-08-20T16:41:03.528Z,23.81
2018-08-20T16:43:31.897Z,23.74
2018-08-20T16:46:00.321Z,23.71
2018-08-20T16:48:28.729Z,23.73
2018-08-20T16:50:57.173Z,23.72
2018-08-20T16:53:25.511Z,23.69
2018-08-20T16:55:53.941Z,23.55
2018-08-20T16:58:22.323Z,23.61
2018-08-20T17:00:50.652Z,23.60
2018-08-20T17:03:19.009Z,23.56
2018-08-20T17:05:48.604Z,23.55
2018-08-20T17:08:21.122Z,23.49
2018-08-20T17:10:49.449Z,23.49
2018-08-20T17:13:17.785Z,23.53
2018-08-20T17:15:46.148Z,23.47
2018-08-20T17:18:14.498Z,23.32
2018-08-20T17:20:42.853Z,23.36
2018-08-20T17:23:19.527Z,23.37
2018-08-20T17:25:47.932Z,23.31
2018-08-20T17:28:23.069Z,23.32
2018-08-20T17:30:57.063Z,23.21
2018-08-20T17:33:25.477Z,23.19
2018-08-20T17:35:53.836Z,23.17
2018-08-20T17:38:22.192Z,23.17
2018-08-20T17:40:50.535Z,23.12
2018-08-20T17:43:18.879Z,23.14
2018-08-20T17:45:47.247Z,23.08
2018-08-20T17:48:25.202Z,23.06
2018-08-20T17:50:53.564Z,23.04
2018-08-20T17:53:21.901Z,23.04
2018-08-20T17:55:50.233Z,23.03
2018-08-20T17:58:18.563Z,23.02
2018-08-20T18:00:52.883Z,22.97
2018-08-20T18:03:26.360Z,22.96
2018-08-20T18:05:58.891Z,22.94
2018-08-20T18:08:28.470Z,22.89
2018-08-20T18:10:57.063Z,22.91
2018-08-20T18:13:35.156Z,22.88
2018-08-20T18:16:05.800Z,22.82
2018-08-20T18:18:34.806Z,22.84
2018-08-20T18:21:03.167Z,22.85
2018-08-20T18:23:32.993Z,22.80
2018-08-20T18:26:01.371Z,22.79
2018-08-20T18:28:39.289Z,22.82
2018-08-20T18:31:13.793Z,22.79
2018-08-20T18:33:43.021Z,22.78
2018-08-20T18:36:14.358Z,22.74
2018-08-20T18:38:47.336Z,22.74
2018-08-20T18:41:15.669Z,22.75
2018-08-20T18:43:44.791Z,22.76
2018-08-20T18:46:13.144Z,22.73
2018-08-20T18:48:42.054Z,22.72
2018-08-20T18:51:13.721Z,22.72
2018-08-20T18:53:42.469Z,22.71
2018-08-20T18:56:15.592Z,22.67
2018-08-20T18:58:44.581Z,22.67
2018-08-20T19:01:13.289Z,22.68
2018-08-20T19:03:46.679Z,22.67
2018-08-20T19:06:15.760Z,22.66
2018-08-20T19:08:44.148Z,22.64
2018-08-20T19:11:13.253Z,22.63
2018-08-20T19:13:42.239Z,22.65
2018-08-20T19:16:26.890Z,22.63
2018-08-20T19:18:55.245Z,22.57
2018-08-20T19:21:26.594Z,22.60
2018-08-20T19:23:56.570Z,22.57
2018-08-20T19:26:25.344Z,22.55
2018-08-20T19:28:53.715Z,22.54
2018-08-20T19:31:22.033Z,22.55
2018-08-20T19:33:50.388Z,22.54
2018-08-20T19:36:18.759Z,22.53
2018-08-20T19:38:47.131Z,22.50
2018-08-20T19:41:15.911Z,22.53
2018-08-20T19:43:51.367Z,22.50
2018-08-20T19:46:25.003Z,22.48
2018-08-20T19:48:58.139Z,22.45
2018-08-20T19:51:26.473Z,22.46
2018-08-20T19:53:54.825Z,22.46
2018-08-20T19:56:23.201Z,22.46
2018-08-20T19:58:51.555Z,22.45
2018-08-20T20:01:19.897Z,22.45
2018-08-20T20:03:49.547Z,22.41
2018-08-20T20:06:18.235Z,22.40
2018-08-20T20:08:46.589Z,22.41
2018-08-20T20:11:21.728Z,22.38
2018-08-20T20:13:55.455Z,22.35
2018-08-20T20:16:24.130Z,22.37
2018-08-20T20:18:52.933Z,22.34
2018-08-20T20:21:22.040Z,22.36
2018-08-20T20:23:50.463Z,22.34
2018-08-20T20:26:19.016Z,22.27
2018-08-20T20:28:47.357Z,22.24
2018-08-20T20:31:15.730Z,22.20
2018-08-20T20:33:44.136Z,22.15
2018-08-20T20:36:17.123Z,22.12
2018-08-20T20:38:46.023Z,22.10
2018-08-20T20:41:14.509Z,22.07
2018-08-20T20:43:42.858Z,22.04
2018-08-20T20:46:11.224Z,22.00
2018-08-20T20:48:39.842Z,21.95
2018-08-20T20:51:08.193Z,21.90
2018-08-20T20:53:36.529Z,21.90
2018-08-20T20:56:04.892Z,21.87
2018-08-20T20:58:34.678Z,21.84
2018-08-20T21:01:05.119Z,21.83
2018-08-20T21:03:33.896Z,21.84
2018-08-20T21:06:02.775Z,21.83
2018-08-20T21:08:35.313Z,21.82
2018-08-20T21:11:03.652Z,21.80
2018-08-20T21:13:32.016Z,21.80
2018-08-20T21:16:05.737Z,21.78
2018-08-20T21:18:35.948Z,21.75
2018-08-20T21:21:04.275Z,21.75
2018-08-20T21:23:35.405Z,21.74
2018-08-20T21:26:03.775Z,21.73
2018-08-20T21:28:39.410Z,21.72
2018-08-20T21:31:07.768Z,21.71
2018-08-20T21:33:36.094Z,21.71
2018-08-20T21:36:04.448Z,21.72
2018-08-20T21:38:33.373Z,21.71
2018-08-20T21:41:01.675Z,21.70
2018-08-20T21:43:34.172Z,21.69
2018-08-20T21:46:02.530Z,21.70
2018-08-20T21:48:30.909Z,21.67
2018-08-20T21:51:02.284Z,21.65
2018-08-20T21:53:37.416Z,21.65
2018-08-20T21:56:08.360Z,21.65
2018-08-20T21:58:38.683Z,21.66
2018-08-20T22:01:07.860Z,21.67
2018-08-20T22:03:36.206Z,21.67
2018-08-20T22:06:04.739Z,21.64
2018-08-20T22:08:33.273Z,21.63
2018-08-20T22:11:01.644Z,21.64
2018-08-20T22:13:29.975Z,21.62
2018-08-20T22:16:19.853Z,21.60
2018-08-20T22:18:53.849Z,21.62
2018-08-20T22:21:22.335Z,21.57
2018-08-20T22:23:50.680Z,21.58
2018-08-20T22:26:20.336Z,21.57
2018-08-20T22:28:51.085Z,21.56
2018-08-20T22:31:19.775Z,21.54
2018-08-20T22:33:54.832Z,21.51
2018-08-20T22:36:23.370Z,21.48
2018-08-20T22:38:52.997Z,21.42
2018-08-20T22:41:22.395Z,21.37
2018-08-20T22:43:50.877Z,21.30
2018-08-20T22:46:20.076Z,21.25
2018-08-20T22:48:51.526Z,21.22
2018-08-20T22:51:20.526Z,21.18
2018-08-20T22:53:54.123Z,21.13
2018-08-20T22:56:24.983Z,21.10
2018-08-20T22:58:56.798Z,21.09
2018-08-20T23:01:25.141Z,21.01
2018-08-20T23:03:53.448Z,20.98
2018-08-20T23:06:21.905Z,20.94
2018-08-20T23:08:50.296Z,20.91
2018-08-20T23:11:34.187Z,20.89
2018-08-20T23:14:02.532Z,20.81
2018-08-20T23:16:30.880Z,20.74
2018-08-20T23:18:59.257Z,20.74
2018-08-20T23:21:32.205Z,20.72
2018-08-20T23:24:00.507Z,20.72
2018-08-20T23:26:28.935Z,20.64
2018-08-20T23:28:57.277Z,20.66
2018-08-20T23:31:25.625Z,20.66
2018-08-20T23:33:53.923Z,20.64
2018-08-20T23:36:22.273Z,20.59
2018-08-20T23:38:50.712Z,20.56
2018-08-20T23:41:19.041Z,20.57
2018-08-20T23:43:52.688Z,20.58
2018-08-20T23:46:29.388Z,20.60
2018-08-20T23:48:57.934Z,20.58
2018-08-20T23:51:26.277Z,20.56
2018-08-20T23:53:54.621Z,20.57
2018-08-20T23:56:22.965Z,20.57
2018-08-20T23:58:51.304Z,20.56
